sensor_id;sensor_type;location;lat;lon;timestamp;temperature;humidity
9849;DHT22;4963;51.444;6.528;2022-12-29T00:02:16;10.90;99.90
9849;DHT22;4963;51.444;6.528;2022-12-29T00:04:43;10.90;99.90
9849;DHT22;4963;51.444;6.528;2022-12-29T00:07:09;10.80;99.90
9849;DHT22;4963;51.444;6.528;2022-12-29T00:09:37;10.70;99.90
9849;DHT22;4963;51.444;6.528;2022-12-29T00:12:04;10.60;99.90
9849;DHT22;4963;51.444;6.528;2022-12-29T00:14:32;10.60;99.90
9849;DHT22;4963;51.444;6.528;2022-12-29T00:17:16;10.50;99.90
9849;DHT22;4963;51.444;6.528;2022-12-29T00:19:43;10.50;99.90
9849;DHT22;4963;51.444;6.528;2022-12-29T00:22:28;10.40;99.90
9849;DHT22;4963;51.444;6.528;2022-12-29T00:25:12;10.40;99.90
9849;DHT22;4963;51.444;6.528;2022-12-29T00:27:57;10.50;99.90
9849;DHT22;4963;51.444;6.528;2022-12-29T00:30:43;10.50;99.90
9849;DHT22;4963;51.444;6.528;2022-12-29T00:33:30;10.50;99.90
9849;DHT22;4963;51.444;6.528;2022-12-29T00:36:17;10.50;99.90
9849;DHT22;4963;51.444;6.528;2022-12-29T00:38:47;10.60;99.90
9849;DHT22;4963;51.444;6.528;2022-12-29T00:41:32;10.60;99.90
9849;DHT22;4963;51.444;6.528;2022-12-29T00:44:16;10.60;99.90
9849;DHT22;4963;51.444;6.528;2022-12-29T00:46:45;10.60;99.90
9849;DHT22;4963;51.444;6.528;2022-12-29T00:49:13;10.70;99.90
9849;DHT22;4963;51.444;6.528;2022-12-29T00:51:59;10.70;99.90
9849;DHT22;4963;51.444;6.528;2022-12-29T00:54:28;10.60;99.90
9849;DHT22;4963;51.444;6.528;2022-12-29T00:56:55;10.60;99.90
9849;DHT22;4963;51.444;6.528;2022-12-29T00:59:22;10.50;99.90
9849;DHT22;4963;51.444;6.528;2022-12-29T01:01:52;10.50;99.90
9849;DHT22;4963;51.444;6.528;2022-12-29T01:04:19;10.50;99.90
9849;DHT22;4963;51.444;6.528;2022-12-29T01:06:46;10.50;99.90
9849;DHT22;4963;51.444;6.528;2022-12-29T01:09:13;10.50;99.90
9849;DHT22;4963;51.444;6.528;2022-12-29T01:11:58;10.50;99.90
9849;DHT22;4963;51.444;6.528;2022-12-29T01:14:25;10.50;99.90
9849;DHT22;4963;51.444;6.528;2022-12-29T01:16:54;10.50;99.90
9849;DHT22;4963;51.444;6.528;2022-12-29T01:19:21;10.50;99.90
9849;DHT22;4963;51.444;6.528;2022-12-29T01:21:48;10.60;99.90
9849;DHT22;4963;51.444;6.528;2022-12-29T01:24:16;10.60;99.90
9849;DHT22;4963;51.444;6.528;2022-12-29T01:26:43;10.60;99.90
9849;DHT22;4963;51.444;6.528;2022-12-29T01:29:10;10.70;99.90
9849;DHT22;4963;51.444;6.528;2022-12-29T01:31:37;10.70;99.90
9849;DHT22;4963;51.444;6.528;2022-12-29T01:34:05;10.80;99.90
9849;DHT22;4963;51.444;6.528;2022-12-29T01:36:32;10.90;99.90
9849;DHT22;4963;51.444;6.528;2022-12-29T01:38:59;10.90;99.90
9849;DHT22;4963;51.444;6.528;2022-12-29T01:41:27;10.90;99.90
9849;DHT22;4963;51.444;6.528;2022-12-29T01:43:55;11.00;99.90
9849;DHT22;4963;51.444;6.528;2022-12-29T01:46:28;11.00;99.90
9849;DHT22;4963;51.444;6.528;2022-12-29T01:49:02;11.00;99.90
9849;DHT22;4963;51.444;6.528;2022-12-29T01:51:35;11.00;99.90
9849;DHT22;4963;51.444;6.528;2022-12-29T01:54:05;11.10;99.90
9849;DHT22;4963;51.444;6.528;2022-12-29T01:56:35;11.10;99.90
9849;DHT22;4963;51.444;6.528;2022-12-29T01:59:07;11.10;99.90
9849;DHT22;4963;51.444;6.528;2022-12-29T02:01:35;11.20;99.90
9849;DHT22;4963;51.444;6.528;2022-12-29T02:04:03;11.20;99.90
9849;DHT22;4963;51.444;6.528;2022-12-29T02:06:35;11.30;99.90
9849;DHT22;4963;51.444;6.528;2022-12-29T02:09:03;11.10;99.90
9849;DHT22;4963;51.444;6.528;2022-12-29T02:11:31;11.30;99.90
9849;DHT22;4963;51.444;6.528;2022-12-29T02:13:58;11.20;99.90
9849;DHT22;4963;51.444;6.528;2022-12-29T02:16:35;11.30;99.90
9849;DHT22;4963;51.444;6.528;2022-12-29T02:19:30;11.30;99.90
9849;DHT22;4963;51.444;6.528;2022-12-29T02:22:14;11.20;99.90
9849;DHT22;4963;51.444;6.528;2022-12-29T02:27:55;11.30;99.90
9849;DHT22;4963;51.444;6.528;2022-12-29T02:30:36;11.20;99.90
9849;DHT22;4963;51.444;6.528;2022-12-29T02:33:09;11.20;99.90
9849;DHT22;4963;51.444;6.528;2022-12-29T02:35:45;11.30;99.90
9849;DHT22;4963;51.444;6.528;2022-12-29T02:38:20;11.30;99.90
9849;DHT22;4963;51.444;6.528;2022-12-29T02:40:54;11.30;99.90
9849;DHT22;4963;51.444;6.528;2022-12-29T02:43:25;11.30;99.90
9849;DHT22;4963;51.444;6.528;2022-12-29T02:45:58;11.30;99.90
9849;DHT22;4963;51.444;6.528;2022-12-29T02:48:29;11.30;99.90
9849;DHT22;4963;51.444;6.528;2022-12-29T02:51:02;11.30;99.90
9849;DHT22;4963;51.444;6.528;2022-12-29T02:53:30;11.30;99.90
9849;DHT22;4963;51.444;6.528;2022-12-29T02:56:16;11.20;99.90
9849;DHT22;4963;51.444;6.528;2022-12-29T02:58:43;11.30;99.90
9849;DHT22;4963;51.444;6.528;2022-12-29T03:01:33;11.30;99.90
9849;DHT22;4963;51.444;6.528;2022-12-29T03:04:11;11.30;99.90
9849;DHT22;4963;51.444;6.528;2022-12-29T03:06:49;11.30;99.90
9849;DHT22;4963;51.444;6.528;2022-12-29T03:09:26;11.30;99.90
9849;DHT22;4963;51.444;6.528;2022-12-29T03:11:59;11.20;99.90
9849;DHT22;4963;51.444;6.528;2022-12-29T03:14:39;11.20;99.90
9849;DHT22;4963;51.444;6.528;2022-12-29T03:17:35;11.20;99.90
9849;DHT22;4963;51.444;6.528;2022-12-29T03:20:08;11.20;99.90
9849;DHT22;4963;51.444;6.528;2022-12-29T03:22:40;11.20;99.90
9849;DHT22;4963;51.444;6.528;2022-12-29T03:25:10;11.10;99.90
9849;DHT22;4963;51.444;6.528;2022-12-29T03:27:42;11.10;99.90
9849;DHT22;4963;51.444;6.528;2022-12-29T03:30:11;11.10;99.90
9849;DHT22;4963;51.444;6.528;2022-12-29T03:32:43;11.10;99.90
9849;DHT22;4963;51.444;6.528;2022-12-29T03:35:13;11.10;99.90
9849;DHT22;4963;51.444;6.528;2022-12-29T03:37:44;11.10;99.90
9849;DHT22;4963;51.444;6.528;2022-12-29T03:40:12;11.10;99.90
9849;DHT22;4963;51.444;6.528;2022-12-29T03:42:39;11.20;99.90
9849;DHT22;4963;51.444;6.528;2022-12-29T03:45:08;11.20;99.90
9849;DHT22;4963;51.444;6.528;2022-12-29T03:47:35;11.20;99.90
9849;DHT22;4963;51.444;6.528;2022-12-29T03:50:04;11.20;99.90
9849;DHT22;4963;51.444;6.528;2022-12-29T03:52:31;11.10;99.90
9849;DHT22;4963;51.444;6.528;2022-12-29T03:54:58;11.00;99.90
9849;DHT22;4963;51.444;6.528;2022-12-29T03:57:25;11.00;99.90
9849;DHT22;4963;51.444;6.528;2022-12-29T03:59:52;10.90;99.90
9849;DHT22;4963;51.444;6.528;2022-12-29T04:02:18;10.90;99.90
9849;DHT22;4963;51.444;6.528;2022-12-29T04:04:45;10.80;99.90
9849;DHT22;4963;51.444;6.528;2022-12-29T04:07:13;10.80;99.90
9849;DHT22;4963;51.444;6.528;2022-12-29T04:09:40;10.70;99.90
9849;DHT22;4963;51.444;6.528;2022-12-29T04:12:07;10.80;99.90
9849;DHT22;4963;51.444;6.528;2022-12-29T04:14:33;10.80;99.90
9849;DHT22;4963;51.444;6.528;2022-12-29T04:17:00;10.70;99.90
9849;DHT22;4963;51.444;6.528;2022-12-29T04:19:27;10.70;99.90
9849;DHT22;4963;51.444;6.528;2022-12-29T04:21:54;10.70;99.90
9849;DHT22;4963;51.444;6.528;2022-12-29T04:24:22;10.70;99.90
9849;DHT22;4963;51.444;6.528;2022-12-29T04:26:49;10.70;99.90
9849;DHT22;4963;51.444;6.528;2022-12-29T04:29:16;10.70;99.90
9849;DHT22;4963;51.444;6.528;2022-12-29T04:31:42;10.80;99.90
9849;DHT22;4963;51.444;6.528;2022-12-29T04:34:09;10.80;99.90
9849;DHT22;4963;51.444;6.528;2022-12-29T04:36:36;10.90;99.90
9849;DHT22;4963;51.444;6.528;2022-12-29T04:39:04;10.90;99.90
9849;DHT22;4963;51.444;6.528;2022-12-29T04:41:32;10.90;99.90
9849;DHT22;4963;51.444;6.528;2022-12-29T04:43:59;10.90;99.90
9849;DHT22;4963;51.444;6.528;2022-12-29T04:46:26;10.90;99.90
9849;DHT22;4963;51.444;6.528;2022-12-29T04:48:53;10.80;99.90
9849;DHT22;4963;51.444;6.528;2022-12-29T04:51:19;10.60;99.90
9849;DHT22;4963;51.444;6.528;2022-12-29T04:53:46;10.50;99.90
9849;DHT22;4963;51.444;6.528;2022-12-29T04:56:13;10.50;99.90
9849;DHT22;4963;51.444;6.528;2022-12-29T04:58:41;10.40;99.90
9849;DHT22;4963;51.444;6.528;2022-12-29T05:01:08;10.30;99.90
9849;DHT22;4963;51.444;6.528;2022-12-29T05:03:35;10.30;99.90
9849;DHT22;4963;51.444;6.528;2022-12-29T05:06:01;10.20;99.90
9849;DHT22;4963;51.444;6.528;2022-12-29T05:08:28;10.20;99.90
9849;DHT22;4963;51.444;6.528;2022-12-29T05:10:55;10.10;99.90
9849;DHT22;4963;51.444;6.528;2022-12-29T05:13:22;10.10;99.90
9849;DHT22;4963;51.444;6.528;2022-12-29T05:15:51;10.10;99.90
9849;DHT22;4963;51.444;6.528;2022-12-29T05:18:19;10.10;99.90
9849;DHT22;4963;51.444;6.528;2022-12-29T05:20:46;10.10;99.90
9849;DHT22;4963;51.444;6.528;2022-12-29T05:23:13;10.10;99.90
9849;DHT22;4963;51.444;6.528;2022-12-29T05:25:41;10.10;99.90
9849;DHT22;4963;51.444;6.528;2022-12-29T05:28:07;9.90;99.90
9849;DHT22;4963;51.444;6.528;2022-12-29T05:30:34;10.00;99.90
9849;DHT22;4963;51.444;6.528;2022-12-29T05:33:02;10.00;99.90
9849;DHT22;4963;51.444;6.528;2022-12-29T05:35:32;9.90;99.90
9849;DHT22;4963;51.444;6.528;2022-12-29T05:37:58;10.00;99.90
9849;DHT22;4963;51.444;6.528;2022-12-29T05:40:25;10.00;99.90
9849;DHT22;4963;51.444;6.528;2022-12-29T05:42:52;10.10;99.90
9849;DHT22;4963;51.444;6.528;2022-12-29T05:45:19;10.10;99.90
9849;DHT22;4963;51.444;6.528;2022-12-29T05:47:45;10.10;99.90
9849;DHT22;4963;51.444;6.528;2022-12-29T05:50:14;10.20;99.90
9849;DHT22;4963;51.444;6.528;2022-12-29T05:52:40;10.30;99.90
9849;DHT22;4963;51.444;6.528;2022-12-29T05:55:07;10.30;99.90
9849;DHT22;4963;51.444;6.528;2022-12-29T05:57:34;10.30;99.90
9849;DHT22;4963;51.444;6.528;2022-12-29T06:00:01;10.30;99.90
9849;DHT22;4963;51.444;6.528;2022-12-29T06:02:28;10.30;99.90
9849;DHT22;4963;51.444;6.528;2022-12-29T06:04:55;10.30;99.90
9849;DHT22;4963;51.444;6.528;2022-12-29T06:07:23;10.30;99.90
9849;DHT22;4963;51.444;6.528;2022-12-29T06:09:50;10.20;99.90
9849;DHT22;4963;51.444;6.528;2022-12-29T06:12:17;10.20;99.90
9849;DHT22;4963;51.444;6.528;2022-12-29T06:14:43;10.20;99.90
9849;DHT22;4963;51.444;6.528;2022-12-29T06:17:10;10.20;99.90
9849;DHT22;4963;51.444;6.528;2022-12-29T06:19:37;10.20;99.90
9849;DHT22;4963;51.444;6.528;2022-12-29T06:22:04;10.20;99.90
9849;DHT22;4963;51.444;6.528;2022-12-29T06:24:34;10.20;99.90
9849;DHT22;4963;51.444;6.528;2022-12-29T06:27:00;10.20;99.90
9849;DHT22;4963;51.444;6.528;2022-12-29T06:29:27;10.30;99.90
9849;DHT22;4963;51.444;6.528;2022-12-29T06:31:54;10.20;99.90
9849;DHT22;4963;51.444;6.528;2022-12-29T06:34:23;10.30;99.90
9849;DHT22;4963;51.444;6.528;2022-12-29T06:36:50;10.30;99.90
9849;DHT22;4963;51.444;6.528;2022-12-29T06:39:17;10.30;99.90
9849;DHT22;4963;51.444;6.528;2022-12-29T06:41:45;10.30;99.90
9849;DHT22;4963;51.444;6.528;2022-12-29T06:44:12;10.30;99.90
9849;DHT22;4963;51.444;6.528;2022-12-29T06:46:38;10.30;99.90
9849;DHT22;4963;51.444;6.528;2022-12-29T06:49:05;10.30;99.90
9849;DHT22;4963;51.444;6.528;2022-12-29T06:51:32;10.30;99.90
9849;DHT22;4963;51.444;6.528;2022-12-29T06:53:59;10.30;99.90
9849;DHT22;4963;51.444;6.528;2022-12-29T06:56:25;10.30;99.90
9849;DHT22;4963;51.444;6.528;2022-12-29T06:58:54;10.30;99.90
9849;DHT22;4963;51.444;6.528;2022-12-29T07:01:20;10.30;99.90
9849;DHT22;4963;51.444;6.528;2022-12-29T07:03:47;10.30;99.90
9849;DHT22;4963;51.444;6.528;2022-12-29T07:06:15;10.30;99.90
9849;DHT22;4963;51.444;6.528;2022-12-29T07:08:41;10.30;99.90
9849;DHT22;4963;51.444;6.528;2022-12-29T07:11:08;10.30;99.90
9849;DHT22;4963;51.444;6.528;2022-12-29T07:13:35;10.30;99.90
9849;DHT22;4963;51.444;6.528;2022-12-29T07:16:07;10.30;99.90
9849;DHT22;4963;51.444;6.528;2022-12-29T07:18:34;10.30;99.90
9849;DHT22;4963;51.444;6.528;2022-12-29T07:21:02;10.30;99.90
9849;DHT22;4963;51.444;6.528;2022-12-29T07:23:29;10.40;99.90
9849;DHT22;4963;51.444;6.528;2022-12-29T07:26:00;10.40;99.90
9849;DHT22;4963;51.444;6.528;2022-12-29T07:28:26;10.30;99.90
9849;DHT22;4963;51.444;6.528;2022-12-29T07:30:53;10.30;99.90
9849;DHT22;4963;51.444;6.528;2022-12-29T07:33:21;10.30;99.90
9849;DHT22;4963;51.444;6.528;2022-12-29T07:35:48;10.30;99.90
9849;DHT22;4963;51.444;6.528;2022-12-29T07:38:15;10.30;99.90
9849;DHT22;4963;51.444;6.528;2022-12-29T07:40:42;10.30;99.90
9849;DHT22;4963;51.444;6.528;2022-12-29T07:43:08;10.40;99.90
9849;DHT22;4963;51.444;6.528;2022-12-29T07:45:35;10.40;99.90
9849;DHT22;4963;51.444;6.528;2022-12-29T07:48:02;10.40;99.90
9849;DHT22;4963;51.444;6.528;2022-12-29T07:50:30;10.50;99.90
9849;DHT22;4963;51.444;6.528;2022-12-29T07:52:57;10.60;99.90
9849;DHT22;4963;51.444;6.528;2022-12-29T07:55:24;10.40;99.90
9849;DHT22;4963;51.444;6.528;2022-12-29T07:57:53;10.40;99.90
9849;DHT22;4963;51.444;6.528;2022-12-29T08:00:20;10.50;99.90
9849;DHT22;4963;51.444;6.528;2022-12-29T08:02:47;10.50;99.90
9849;DHT22;4963;51.444;6.528;2022-12-29T08:05:13;10.50;99.90
9849;DHT22;4963;51.444;6.528;2022-12-29T08:07:43;10.50;99.90
9849;DHT22;4963;51.444;6.528;2022-12-29T08:10:10;10.50;99.90
9849;DHT22;4963;51.444;6.528;2022-12-29T08:12:38;10.50;99.90
9849;DHT22;4963;51.444;6.528;2022-12-29T08:15:06;10.40;99.90
9849;DHT22;4963;51.444;6.528;2022-12-29T08:17:33;10.40;99.90
9849;DHT22;4963;51.444;6.528;2022-12-29T08:20:00;10.40;99.90
9849;DHT22;4963;51.444;6.528;2022-12-29T08:22:27;10.40;99.90
9849;DHT22;4963;51.444;6.528;2022-12-29T08:24:55;10.40;99.90
9849;DHT22;4963;51.444;6.528;2022-12-29T08:27:22;10.30;99.90
9849;DHT22;4963;51.444;6.528;2022-12-29T08:29:49;10.30;99.90
9849;DHT22;4963;51.444;6.528;2022-12-29T08:32:16;10.30;99.90
9849;DHT22;4963;51.444;6.528;2022-12-29T08:34:43;10.30;99.90
9849;DHT22;4963;51.444;6.528;2022-12-29T08:37:10;10.30;99.90
9849;DHT22;4963;51.444;6.528;2022-12-29T08:39:37;10.30;99.90
9849;DHT22;4963;51.444;6.528;2022-12-29T08:42:05;10.20;99.90
9849;DHT22;4963;51.444;6.528;2022-12-29T08:44:32;10.20;99.90
9849;DHT22;4963;51.444;6.528;2022-12-29T08:46:58;10.30;99.90
9849;DHT22;4963;51.444;6.528;2022-12-29T08:49:25;10.30;99.90
9849;DHT22;4963;51.444;6.528;2022-12-29T08:51:52;10.30;99.90
9849;DHT22;4963;51.444;6.528;2022-12-29T08:54:19;10.30;99.90
9849;DHT22;4963;51.444;6.528;2022-12-29T08:56:45;10.40;99.90
9849;DHT22;4963;51.444;6.528;2022-12-29T08:59:13;10.50;99.90
9849;DHT22;4963;51.444;6.528;2022-12-29T09:01:40;10.50;99.90
9849;DHT22;4963;51.444;6.528;2022-12-29T09:04:07;10.60;99.90
9849;DHT22;4963;51.444;6.528;2022-12-29T09:06:34;10.60;99.90
9849;DHT22;4963;51.444;6.528;2022-12-29T09:09:02;10.60;99.90
9849;DHT22;4963;51.444;6.528;2022-12-29T09:11:28;10.70;99.90
9849;DHT22;4963;51.444;6.528;2022-12-29T09:13:55;10.60;99.90
9849;DHT22;4963;51.444;6.528;2022-12-29T09:16:24;10.60;99.90
9849;DHT22;4963;51.444;6.528;2022-12-29T09:18:52;10.60;99.90
9849;DHT22;4963;51.444;6.528;2022-12-29T09:21:19;10.60;99.90
9849;DHT22;4963;51.444;6.528;2022-12-29T09:23:45;10.60;99.90
9849;DHT22;4963;51.444;6.528;2022-12-29T09:26:12;10.60;99.90
9849;DHT22;4963;51.444;6.528;2022-12-29T09:28:39;10.60;99.90
9849;DHT22;4963;51.444;6.528;2022-12-29T09:31:06;10.60;99.90
9849;DHT22;4963;51.444;6.528;2022-12-29T09:33:34;10.60;99.90
9849;DHT22;4963;51.444;6.528;2022-12-29T09:36:02;10.60;99.90
9849;DHT22;4963;51.444;6.528;2022-12-29T09:38:29;10.60;99.90
9849;DHT22;4963;51.444;6.528;2022-12-29T09:41:01;10.60;99.90
9849;DHT22;4963;51.444;6.528;2022-12-29T09:43:45;10.60;99.90
9849;DHT22;4963;51.444;6.528;2022-12-29T09:46:21;10.60;99.90
9849;DHT22;4963;51.444;6.528;2022-12-29T09:48:55;10.60;99.90
9849;DHT22;4963;51.444;6.528;2022-12-29T09:51:25;10.40;99.90
9849;DHT22;4963;51.444;6.528;2022-12-29T09:53:56;10.70;99.90
9849;DHT22;4963;51.444;6.528;2022-12-29T09:56:25;10.70;99.90
9849;DHT22;4963;51.444;6.528;2022-12-29T09:58:56;10.70;99.90
9849;DHT22;4963;51.444;6.528;2022-12-29T10:01:29;10.70;99.90
9849;DHT22;4963;51.444;6.528;2022-12-29T10:03:59;10.60;99.90
9849;DHT22;4963;51.444;6.528;2022-12-29T10:06:33;10.70;99.90
9849;DHT22;4963;51.444;6.528;2022-12-29T10:09:08;10.70;99.90
9849;DHT22;4963;51.444;6.528;2022-12-29T10:11:56;10.70;99.90
9849;DHT22;4963;51.444;6.528;2022-12-29T10:14:36;10.70;99.90
9849;DHT22;4963;51.444;6.528;2022-12-29T10:17:17;10.70;99.90
9849;DHT22;4963;51.444;6.528;2022-12-29T10:20:10;10.80;99.90
9849;DHT22;4963;51.444;6.528;2022-12-29T10:22:53;10.90;99.90
9849;DHT22;4963;51.444;6.528;2022-12-29T10:25:25;10.90;99.90
9849;DHT22;4963;51.444;6.528;2022-12-29T10:27:56;10.90;99.90
9849;DHT22;4963;51.444;6.528;2022-12-29T10:30:25;10.90;99.90
9849;DHT22;4963;51.444;6.528;2022-12-29T10:32:54;10.80;99.90
9849;DHT22;4963;51.444;6.528;2022-12-29T10:35:24;10.90;99.90
9849;DHT22;4963;51.444;6.528;2022-12-29T10:37:56;10.80;99.90
9849;DHT22;4963;51.444;6.528;2022-12-29T10:40:27;10.80;99.90
9849;DHT22;4963;51.444;6.528;2022-12-29T10:42:57;10.80;99.90
9849;DHT22;4963;51.444;6.528;2022-12-29T10:45:28;10.80;99.90
9849;DHT22;4963;51.444;6.528;2022-12-29T10:47:59;10.80;99.90
9849;DHT22;4963;51.444;6.528;2022-12-29T10:50:29;10.80;99.90
9849;DHT22;4963;51.444;6.528;2022-12-29T10:52:58;10.80;99.90
9849;DHT22;4963;51.444;6.528;2022-12-29T10:55:30;10.80;99.90
9849;DHT22;4963;51.444;6.528;2022-12-29T10:58:02;10.80;99.90
9849;DHT22;4963;51.444;6.528;2022-12-29T11:00:32;10.80;99.90
9849;DHT22;4963;51.444;6.528;2022-12-29T11:03:16;10.80;99.90
9849;DHT22;4963;51.444;6.528;2022-12-29T11:05:53;10.80;99.90
9849;DHT22;4963;51.444;6.528;2022-12-29T11:08:24;10.90;99.90
9849;DHT22;4963;51.444;6.528;2022-12-29T11:10:59;10.80;99.90
9849;DHT22;4963;51.444;6.528;2022-12-29T11:13:28;10.90;99.90
9849;DHT22;4963;51.444;6.528;2022-12-29T11:15:55;10.90;99.90
9849;DHT22;4963;51.444;6.528;2022-12-29T11:18:23;11.10;99.90
9849;DHT22;4963;51.444;6.528;2022-12-29T11:20:54;11.10;99.90
9849;DHT22;4963;51.444;6.528;2022-12-29T11:23:24;11.20;99.90
9849;DHT22;4963;51.444;6.528;2022-12-29T11:26:22;11.20;99.90
9849;DHT22;4963;51.444;6.528;2022-12-29T11:29:11;11.30;99.90
9849;DHT22;4963;51.444;6.528;2022-12-29T11:31:44;11.30;99.90
9849;DHT22;4963;51.444;6.528;2022-12-29T11:34:17;11.30;99.90
9849;DHT22;4963;51.444;6.528;2022-12-29T11:36:46;11.30;99.90
9849;DHT22;4963;51.444;6.528;2022-12-29T11:39:36;11.30;99.90
9849;DHT22;4963;51.444;6.528;2022-12-29T11:42:06;11.30;99.90
9849;DHT22;4963;51.444;6.528;2022-12-29T11:44:43;11.40;99.90
9849;DHT22;4963;51.444;6.528;2022-12-29T11:47:26;11.20;99.90
9849;DHT22;4963;51.444;6.528;2022-12-29T11:49:56;11.30;99.90
9849;DHT22;4963;51.444;6.528;2022-12-29T11:52:27;11.30;99.90
9849;DHT22;4963;51.444;6.528;2022-12-29T11:54:55;11.30;99.90
9849;DHT22;4963;51.444;6.528;2022-12-29T11:57:24;11.30;99.90
9849;DHT22;4963;51.444;6.528;2022-12-29T11:59:52;11.30;99.90
9849;DHT22;4963;51.444;6.528;2022-12-29T12:02:36;11.30;99.90
9849;DHT22;4963;51.444;6.528;2022-12-29T12:05:12;11.30;99.90
9849;DHT22;4963;51.444;6.528;2022-12-29T12:07:42;11.30;99.90
9849;DHT22;4963;51.444;6.528;2022-12-29T12:10:26;11.20;99.90
9849;DHT22;4963;51.444;6.528;2022-12-29T12:12:59;11.20;99.90
9849;DHT22;4963;51.444;6.528;2022-12-29T12:15:33;11.20;99.90
9849;DHT22;4963;51.444;6.528;2022-12-29T12:18:05;11.20;99.90
9849;DHT22;4963;51.444;6.528;2022-12-29T12:20:41;11.10;99.90
9849;DHT22;4963;51.444;6.528;2022-12-29T12:23:19;11.10;99.90
9849;DHT22;4963;51.444;6.528;2022-12-29T12:25:53;11.10;99.90
9849;DHT22;4963;51.444;6.528;2022-12-29T12:28:27;11.10;99.90
9849;DHT22;4963;51.444;6.528;2022-12-29T12:30:57;11.10;99.90
9849;DHT22;4963;51.444;6.528;2022-12-29T12:33:28;11.00;99.90
9849;DHT22;4963;51.444;6.528;2022-12-29T12:36:11;11.00;99.90
9849;DHT22;4963;51.444;6.528;2022-12-29T12:38:49;11.00;99.90
9849;DHT22;4963;51.444;6.528;2022-12-29T12:41:24;11.00;99.90
9849;DHT22;4963;51.444;6.528;2022-12-29T12:44:00;11.00;99.90
9849;DHT22;4963;51.444;6.528;2022-12-29T12:47:05;11.00;99.90
9849;DHT22;4963;51.444;6.528;2022-12-29T12:49:47;11.00;99.90
9849;DHT22;4963;51.444;6.528;2022-12-29T12:52:25;11.00;99.90
9849;DHT22;4963;51.444;6.528;2022-12-29T12:55:10;11.00;99.90
9849;DHT22;4963;51.444;6.528;2022-12-29T12:57:49;11.00;99.90
9849;DHT22;4963;51.444;6.528;2022-12-29T13:00:19;11.10;99.90
9849;DHT22;4963;51.444;6.528;2022-12-29T13:03:00;11.10;99.90
9849;DHT22;4963;51.444;6.528;2022-12-29T13:05:39;11.10;99.90
9849;DHT22;4963;51.444;6.528;2022-12-29T13:08:27;11.10;99.90
9849;DHT22;4963;51.444;6.528;2022-12-29T13:11:06;11.10;99.90
9849;DHT22;4963;51.444;6.528;2022-12-29T13:14:01;11.10;99.90
9849;DHT22;4963;51.444;6.528;2022-12-29T13:16:36;11.10;99.90
9849;DHT22;4963;51.444;6.528;2022-12-29T13:19:13;11.00;99.90
9849;DHT22;4963;51.444;6.528;2022-12-29T13:21:51;11.00;99.90
9849;DHT22;4963;51.444;6.528;2022-12-29T13:24:25;10.90;99.90
9849;DHT22;4963;51.444;6.528;2022-12-29T13:27:00;10.90;99.90
9849;DHT22;4963;51.444;6.528;2022-12-29T13:29:33;10.90;99.90
9849;DHT22;4963;51.444;6.528;2022-12-29T13:32:13;10.90;99.90
9849;DHT22;4963;51.444;6.528;2022-12-29T13:34:48;10.90;99.90
9849;DHT22;4963;51.444;6.528;2022-12-29T13:37:20;10.90;99.90
9849;DHT22;4963;51.444;6.528;2022-12-29T13:39:52;10.90;99.90
9849;DHT22;4963;51.444;6.528;2022-12-29T13:42:23;10.90;99.90
9849;DHT22;4963;51.444;6.528;2022-12-29T13:44:54;10.90;99.90
9849;DHT22;4963;51.444;6.528;2022-12-29T13:47:28;10.80;99.90
9849;DHT22;4963;51.444;6.528;2022-12-29T13:49:58;10.80;99.90
9849;DHT22;4963;51.444;6.528;2022-12-29T13:52:35;10.80;99.90
9849;DHT22;4963;51.444;6.528;2022-12-29T13:55:20;10.70;99.90
9849;DHT22;4963;51.444;6.528;2022-12-29T13:57:55;10.70;99.90
9849;DHT22;4963;51.444;6.528;2022-12-29T14:00:26;10.70;99.90
9849;DHT22;4963;51.444;6.528;2022-12-29T14:03:17;10.60;99.90
9849;DHT22;4963;51.444;6.528;2022-12-29T14:06:01;10.60;99.90
9849;DHT22;4963;51.444;6.528;2022-12-29T14:08:34;10.60;99.90
9849;DHT22;4963;51.444;6.528;2022-12-29T14:11:07;10.50;99.90
9849;DHT22;4963;51.444;6.528;2022-12-29T14:13:38;10.50;99.90
9849;DHT22;4963;51.444;6.528;2022-12-29T14:16:07;10.50;99.90
9849;DHT22;4963;51.444;6.528;2022-12-29T14:18:42;10.50;99.90
9849;DHT22;4963;51.444;6.528;2022-12-29T14:21:19;10.50;99.90
9849;DHT22;4963;51.444;6.528;2022-12-29T14:23:48;10.40;99.90
9849;DHT22;4963;51.444;6.528;2022-12-29T14:26:17;10.40;99.90
9849;DHT22;4963;51.444;6.528;2022-12-29T14:29:16;10.40;99.90
9849;DHT22;4963;51.444;6.528;2022-12-29T14:31:43;10.40;99.90
9849;DHT22;4963;51.444;6.528;2022-12-29T14:34:34;10.50;99.90
9849;DHT22;4963;51.444;6.528;2022-12-29T14:37:17;10.40;99.90
9849;DHT22;4963;51.444;6.528;2022-12-29T14:39:48;10.40;99.90
9849;DHT22;4963;51.444;6.528;2022-12-29T14:42:19;10.40;99.90
9849;DHT22;4963;51.444;6.528;2022-12-29T14:44:51;10.50;99.90
9849;DHT22;4963;51.444;6.528;2022-12-29T14:47:20;10.50;99.90
9849;DHT22;4963;51.444;6.528;2022-12-29T14:49:48;10.50;99.90
9849;DHT22;4963;51.444;6.528;2022-12-29T14:52:18;10.50;99.90
9849;DHT22;4963;51.444;6.528;2022-12-29T14:54:51;10.40;99.90
9849;DHT22;4963;51.444;6.528;2022-12-29T14:57:27;10.50;99.90
9849;DHT22;4963;51.444;6.528;2022-12-29T15:00:00;10.50;99.90
9849;DHT22;4963;51.444;6.528;2022-12-29T15:02:36;10.50;99.90
9849;DHT22;4963;51.444;6.528;2022-12-29T15:05:05;10.50;99.90
9849;DHT22;4963;51.444;6.528;2022-12-29T15:07:35;10.50;99.90
9849;DHT22;4963;51.444;6.528;2022-12-29T15:10:06;10.40;99.90
9849;DHT22;4963;51.444;6.528;2022-12-29T15:12:37;10.40;99.90
9849;DHT22;4963;51.444;6.528;2022-12-29T15:15:19;10.40;99.90
9849;DHT22;4963;51.444;6.528;2022-12-29T15:17:46;10.40;99.90
9849;DHT22;4963;51.444;6.528;2022-12-29T15:20:25;10.40;99.90
9849;DHT22;4963;51.444;6.528;2022-12-29T15:22:55;10.30;99.90
9849;DHT22;4963;51.444;6.528;2022-12-29T15:25:23;10.30;99.90
9849;DHT22;4963;51.444;6.528;2022-12-29T15:27:51;10.30;99.90
9849;DHT22;4963;51.444;6.528;2022-12-29T15:30:20;10.30;99.90
9849;DHT22;4963;51.444;6.528;2022-12-29T15:32:50;10.20;99.90
9849;DHT22;4963;51.444;6.528;2022-12-29T15:35:30;10.30;99.90
9849;DHT22;4963;51.444;6.528;2022-12-29T15:37:58;10.30;99.90
9849;DHT22;4963;51.444;6.528;2022-12-29T15:40:27;10.30;99.90
9849;DHT22;4963;51.444;6.528;2022-12-29T15:43:08;10.30;99.90
9849;DHT22;4963;51.444;6.528;2022-12-29T15:45:38;10.30;99.90
9849;DHT22;4963;51.444;6.528;2022-12-29T15:48:10;10.20;99.90
9849;DHT22;4963;51.444;6.528;2022-12-29T15:50:40;10.20;99.90
9849;DHT22;4963;51.444;6.528;2022-12-29T15:53:10;10.20;99.90
9849;DHT22;4963;51.444;6.528;2022-12-29T15:55:40;10.20;99.90
9849;DHT22;4963;51.444;6.528;2022-12-29T15:58:19;10.20;99.90
9849;DHT22;4963;51.444;6.528;2022-12-29T16:00:50;10.20;99.90
9849;DHT22;4963;51.444;6.528;2022-12-29T16:03:18;10.20;99.90
9849;DHT22;4963;51.444;6.528;2022-12-29T16:05:51;10.20;99.90
9849;DHT22;4963;51.444;6.528;2022-12-29T16:08:29;10.20;99.90
9849;DHT22;4963;51.444;6.528;2022-12-29T16:11:00;10.20;99.90
9849;DHT22;4963;51.444;6.528;2022-12-29T16:13:29;10.10;99.90
9849;DHT22;4963;51.444;6.528;2022-12-29T16:16:00;10.20;99.90
9849;DHT22;4963;51.444;6.528;2022-12-29T16:18:30;10.10;99.90
9849;DHT22;4963;51.444;6.528;2022-12-29T16:21:00;10.10;99.90
9849;DHT22;4963;51.444;6.528;2022-12-29T16:23:28;10.00;99.90
9849;DHT22;4963;51.444;6.528;2022-12-29T16:25:56;10.00;99.90
9849;DHT22;4963;51.444;6.528;2022-12-29T16:28:30;9.90;99.90
9849;DHT22;4963;51.444;6.528;2022-12-29T16:31:02;9.80;99.90
9849;DHT22;4963;51.444;6.528;2022-12-29T16:33:37;9.80;99.90